sensor_id;sensor_type;location;lat;lon;timestamp;P1;durP1;ratioP1;P2;durP2;ratioP2
41677;SDS011;27364;49.026;8.712;2023-03-01T00:01:37;17.88;;;11.65;;
41677;SDS011;27364;49.026;8.712;2023-03-01T00:04:03;18.85;;;11.63;;
41677;SDS011;27364;49.026;8.712;2023-03-01T00:06:28;20.27;;;12.10;;
41677;SDS011;27364;49.026;8.712;2023-03-01T00:08:54;17.50;;;11.52;;
41677;SDS011;27364;49.026;8.712;2023-03-01T00:11:21;16.67;;;11.20;;
41677;SDS011;27364;49.026;8.712;2023-03-01T00:13:52;17.67;;;11.48;;
41677;SDS011;27364;49.026;8.712;2023-03-01T00:16:21;18.35;;;11.65;;
41677;SDS011;27364;49.026;8.712;2023-03-01T00:18:48;17.42;;;10.85;;
41677;SDS011;27364;49.026;8.712;2023-03-01T00:21:14;16.20;;;10.75;;
41677;SDS011;27364;49.026;8.712;2023-03-01T00:23:40;19.00;;;11.07;;
41677;SDS011;27364;49.026;8.712;2023-03-01T00:26:06;19.20;;;11.75;;
41677;SDS011;27364;49.026;8.712;2023-03-01T00:31:06;17.50;;;11.43;;
41677;SDS011;27364;49.026;8.712;2023-03-01T00:33:34;20.05;;;11.75;;
41677;SDS011;27364;49.026;8.712;2023-03-01T00:35:59;17.13;;;11.07;;
41677;SDS011;27364;49.026;8.712;2023-03-01T00:38:26;18.83;;;11.75;;
41677;SDS011;27364;49.026;8.712;2023-03-01T00:40:52;16.05;;;10.88;;
41677;SDS011;27364;49.026;8.712;2023-03-01T00:43:18;18.10;;;11.55;;
41677;SDS011;27364;49.026;8.712;2023-03-01T00:45:43;21.52;;;12.20;;
41677;SDS011;27364;49.026;8.712;2023-03-01T00:48:09;19.23;;;12.45;;
41677;SDS011;27364;49.026;8.712;2023-03-01T00:50:34;18.90;;;12.40;;
41677;SDS011;27364;49.026;8.712;2023-03-01T00:53:00;19.65;;;12.25;;
41677;SDS011;27364;49.026;8.712;2023-03-01T00:55:25;17.85;;;11.57;;
41677;SDS011;27364;49.026;8.712;2023-03-01T00:57:51;18.05;;;12.27;;
41677;SDS011;27364;49.026;8.712;2023-03-01T01:00:17;16.75;;;11.20;;
41677;SDS011;27364;49.026;8.712;2023-03-01T01:02:43;17.95;;;13.00;;
41677;SDS011;27364;49.026;8.712;2023-03-01T01:05:11;18.27;;;12.52;;
41677;SDS011;27364;49.026;8.712;2023-03-01T01:07:37;19.67;;;12.85;;
41677;SDS011;27364;49.026;8.712;2023-03-01T01:10:03;19.35;;;12.25;;
41677;SDS011;27364;49.026;8.712;2023-03-01T01:12:28;20.45;;;12.60;;
41677;SDS011;27364;49.026;8.712;2023-03-01T01:14:54;17.77;;;11.60;;
41677;SDS011;27364;49.026;8.712;2023-03-01T01:17:20;16.98;;;11.18;;
41677;SDS011;27364;49.026;8.712;2023-03-01T01:19:45;16.88;;;11.00;;
41677;SDS011;27364;49.026;8.712;2023-03-01T01:22:11;16.83;;;11.20;;
41677;SDS011;27364;49.026;8.712;2023-03-01T01:24:36;16.08;;;10.68;;
41677;SDS011;27364;49.026;8.712;2023-03-01T01:27:02;18.08;;;11.60;;
41677;SDS011;27364;49.026;8.712;2023-03-01T01:29:27;15.70;;;10.77;;
41677;SDS011;27364;49.026;8.712;2023-03-01T01:31:53;15.57;;;10.50;;
41677;SDS011;27364;49.026;8.712;2023-03-01T01:34:20;17.02;;;11.55;;
41677;SDS011;27364;49.026;8.712;2023-03-01T01:36:50;19.88;;;11.35;;
41677;SDS011;27364;49.026;8.712;2023-03-01T01:39:18;15.93;;;11.35;;
41677;SDS011;27364;49.026;8.712;2023-03-01T01:41:44;16.80;;;11.18;;
41677;SDS011;27364;49.026;8.712;2023-03-01T01:44:17;17.65;;;11.18;;
41677;SDS011;27364;49.026;8.712;2023-03-01T01:46:53;17.90;;;11.45;;
41677;SDS011;27364;49.026;8.712;2023-03-01T01:49:31;18.40;;;11.57;;
41677;SDS011;27364;49.026;8.712;2023-03-01T01:57:22;17.70;;;10.85;;
41677;SDS011;27364;49.026;8.712;2023-03-01T01:59:57;17.40;;;10.52;;
41677;SDS011;27364;49.026;8.712;2023-03-01T02:02:24;18.60;;;11.55;;
41677;SDS011;27364;49.026;8.712;2023-03-01T02:04:52;16.10;;;11.05;;
41677;SDS011;27364;49.026;8.712;2023-03-01T02:07:34;17.17;;;11.45;;
41677;SDS011;27364;49.026;8.712;2023-03-01T02:10:00;18.13;;;11.73;;
41677;SDS011;27364;49.026;8.712;2023-03-01T02:12:27;18.15;;;12.55;;
41677;SDS011;27364;49.026;8.712;2023-03-01T02:14:52;19.02;;;11.77;;
41677;SDS011;27364;49.026;8.712;2023-03-01T02:17:18;18.90;;;12.48;;
41677;SDS011;27364;49.026;8.712;2023-03-01T02:19:50;17.67;;;11.57;;
41677;SDS011;27364;49.026;8.712;2023-03-01T02:22:36;22.55;;;13.30;;
41677;SDS011;27364;49.026;8.712;2023-03-01T02:30:40;20.00;;;12.30;;
41677;SDS011;27364;49.026;8.712;2023-03-01T02:33:27;19.52;;;12.68;;
41677;SDS011;27364;49.026;8.712;2023-03-01T02:35:57;19.92;;;12.30;;
41677;SDS011;27364;49.026;8.712;2023-03-01T02:38:28;20.55;;;11.65;;
41677;SDS011;27364;49.026;8.712;2023-03-01T02:40:55;18.40;;;12.02;;
41677;SDS011;27364;49.026;8.712;2023-03-01T02:43:22;19.67;;;12.48;;
41677;SDS011;27364;49.026;8.712;2023-03-01T02:45:52;18.10;;;11.75;;
41677;SDS011;27364;49.026;8.712;2023-03-01T02:48:18;19.35;;;12.50;;
41677;SDS011;27364;49.026;8.712;2023-03-01T02:50:47;19.75;;;12.18;;
41677;SDS011;27364;49.026;8.712;2023-03-01T02:53:27;18.88;;;12.13;;
41677;SDS011;27364;49.026;8.712;2023-03-01T02:56:13;20.88;;;13.60;;
41677;SDS011;27364;49.026;8.712;2023-03-01T02:58:40;20.80;;;12.60;;
41677;SDS011;27364;49.026;8.712;2023-03-01T03:01:10;19.13;;;11.98;;
41677;SDS011;27364;49.026;8.712;2023-03-01T03:03:36;18.63;;;12.25;;
41677;SDS011;27364;49.026;8.712;2023-03-01T03:06:01;21.48;;;12.52;;
41677;SDS011;27364;49.026;8.712;2023-03-01T03:08:27;19.55;;;13.02;;
41677;SDS011;27364;49.026;8.712;2023-03-01T03:10:52;18.90;;;12.68;;
41677;SDS011;27364;49.026;8.712;2023-03-01T03:13:18;19.48;;;12.88;;
41677;SDS011;27364;49.026;8.712;2023-03-01T03:15:44;21.05;;;12.13;;
41677;SDS011;27364;49.026;8.712;2023-03-01T03:18:10;21.63;;;12.45;;
41677;SDS011;27364;49.026;8.712;2023-03-01T03:20:38;18.38;;;12.23;;
41677;SDS011;27364;49.026;8.712;2023-03-01T03:23:05;20.83;;;13.40;;
41677;SDS011;27364;49.026;8.712;2023-03-01T03:25:31;20.20;;;12.45;;
41677;SDS011;27364;49.026;8.712;2023-03-01T03:27:57;20.55;;;12.77;;
41677;SDS011;27364;49.026;8.712;2023-03-01T03:30:24;21.40;;;13.20;;
41677;SDS011;27364;49.026;8.712;2023-03-01T03:32:51;20.52;;;12.63;;
41677;SDS011;27364;49.026;8.712;2023-03-01T03:35:27;21.05;;;12.60;;
41677;SDS011;27364;49.026;8.712;2023-03-01T03:37:55;20.67;;;12.68;;
41677;SDS011;27364;49.026;8.712;2023-03-01T03:40:34;20.48;;;13.40;;
41677;SDS011;27364;49.026;8.712;2023-03-01T03:43:02;19.10;;;12.73;;
41677;SDS011;27364;49.026;8.712;2023-03-01T03:45:29;20.25;;;12.77;;
41677;SDS011;27364;49.026;8.712;2023-03-01T03:47:54;19.80;;;12.57;;
41677;SDS011;27364;49.026;8.712;2023-03-01T03:50:20;19.33;;;12.73;;
41677;SDS011;27364;49.026;8.712;2023-03-01T03:52:45;17.80;;;12.10;;
41677;SDS011;27364;49.026;8.712;2023-03-01T03:55:12;22.23;;;13.20;;
41677;SDS011;27364;49.026;8.712;2023-03-01T03:57:38;21.55;;;14.00;;
41677;SDS011;27364;49.026;8.712;2023-03-01T04:00:07;20.50;;;12.35;;
41677;SDS011;27364;49.026;8.712;2023-03-01T04:02:42;20.00;;;12.90;;
41677;SDS011;27364;49.026;8.712;2023-03-01T04:05:08;20.13;;;13.68;;
41677;SDS011;27364;49.026;8.712;2023-03-01T04:07:36;20.42;;;12.55;;
41677;SDS011;27364;49.026;8.712;2023-03-01T04:10:07;20.58;;;12.48;;
41677;SDS011;27364;49.026;8.712;2023-03-01T04:12:35;19.50;;;12.52;;
41677;SDS011;27364;49.026;8.712;2023-03-01T04:15:01;19.15;;;12.95;;
41677;SDS011;27364;49.026;8.712;2023-03-01T04:17:41;21.50;;;12.57;;
41677;SDS011;27364;49.026;8.712;2023-03-01T04:20:11;19.65;;;13.20;;
41677;SDS011;27364;49.026;8.712;2023-03-01T04:22:39;19.80;;;12.27;;
41677;SDS011;27364;49.026;8.712;2023-03-01T04:25:06;18.95;;;12.38;;
41677;SDS011;27364;49.026;8.712;2023-03-01T04:27:35;20.67;;;12.93;;
41677;SDS011;27364;49.026;8.712;2023-03-01T04:30:03;19.85;;;12.38;;
41677;SDS011;27364;49.026;8.712;2023-03-01T04:32:28;22.60;;;14.43;;
41677;SDS011;27364;49.026;8.712;2023-03-01T04:34:54;22.73;;;14.38;;
41677;SDS011;27364;49.026;8.712;2023-03-01T04:37:20;22.55;;;14.00;;
41677;SDS011;27364;49.026;8.712;2023-03-01T04:39:45;20.58;;;13.65;;
41677;SDS011;27364;49.026;8.712;2023-03-01T04:42:12;23.63;;;14.57;;
41677;SDS011;27364;49.026;8.712;2023-03-01T04:44:37;21.55;;;13.52;;
41677;SDS011;27364;49.026;8.712;2023-03-01T04:47:03;20.23;;;13.10;;
41677;SDS011;27364;49.026;8.712;2023-03-01T04:49:28;21.42;;;13.90;;
41677;SDS011;27364;49.026;8.712;2023-03-01T04:51:54;23.67;;;14.50;;
41677;SDS011;27364;49.026;8.712;2023-03-01T04:54:20;22.27;;;14.30;;
41677;SDS011;27364;49.026;8.712;2023-03-01T04:56:45;23.58;;;14.60;;
41677;SDS011;27364;49.026;8.712;2023-03-01T04:59:11;22.90;;;14.02;;
41677;SDS011;27364;49.026;8.712;2023-03-01T05:01:37;22.80;;;13.63;;
41677;SDS011;27364;49.026;8.712;2023-03-01T05:04:03;22.38;;;14.60;;
41677;SDS011;27364;49.026;8.712;2023-03-01T05:06:30;22.75;;;14.68;;
41677;SDS011;27364;49.026;8.712;2023-03-01T05:08:56;23.95;;;15.48;;
41677;SDS011;27364;49.026;8.712;2023-03-01T05:11:22;25.58;;;15.32;;
41677;SDS011;27364;49.026;8.712;2023-03-01T05:13:48;21.75;;;14.75;;
41677;SDS011;27364;49.026;8.712;2023-03-01T05:16:14;20.95;;;13.77;;
41677;SDS011;27364;49.026;8.712;2023-03-01T05:18:41;22.42;;;13.93;;
41677;SDS011;27364;49.026;8.712;2023-03-01T05:21:12;21.70;;;13.55;;
41677;SDS011;27364;49.026;8.712;2023-03-01T05:23:40;21.40;;;13.82;;
41677;SDS011;27364;49.026;8.712;2023-03-01T05:26:06;21.92;;;14.50;;
41677;SDS011;27364;49.026;8.712;2023-03-01T05:28:33;22.90;;;14.68;;
41677;SDS011;27364;49.026;8.712;2023-03-01T05:30:58;21.45;;;13.73;;
41677;SDS011;27364;49.026;8.712;2023-03-01T05:33:24;22.23;;;13.93;;
41677;SDS011;27364;49.026;8.712;2023-03-01T05:35:51;23.02;;;14.55;;
41677;SDS011;27364;49.026;8.712;2023-03-01T05:38:17;22.73;;;14.68;;
41677;SDS011;27364;49.026;8.712;2023-03-01T05:40:44;23.40;;;14.07;;
41677;SDS011;27364;49.026;8.712;2023-03-01T05:43:12;22.92;;;14.35;;
41677;SDS011;27364;49.026;8.712;2023-03-01T05:48:05;21.40;;;13.73;;
41677;SDS011;27364;49.026;8.712;2023-03-01T05:50:32;21.52;;;13.48;;
41677;SDS011;27364;49.026;8.712;2023-03-01T05:55:33;19.83;;;13.38;;
41677;SDS011;27364;49.026;8.712;2023-03-01T05:57:59;22.08;;;13.77;;
41677;SDS011;27364;49.026;8.712;2023-03-01T06:00:26;24.02;;;14.25;;
41677;SDS011;27364;49.026;8.712;2023-03-01T06:02:53;22.35;;;13.90;;
41677;SDS011;27364;49.026;8.712;2023-03-01T06:05:19;21.63;;;13.60;;
41677;SDS011;27364;49.026;8.712;2023-03-01T06:07:45;21.73;;;13.98;;
41677;SDS011;27364;49.026;8.712;2023-03-01T06:10:11;22.80;;;14.98;;
41677;SDS011;27364;49.026;8.712;2023-03-01T06:12:38;23.67;;;15.85;;
41677;SDS011;27364;49.026;8.712;2023-03-01T06:15:05;25.05;;;15.25;;
41677;SDS011;27364;49.026;8.712;2023-03-01T06:17:32;26.70;;;15.57;;
41677;SDS011;27364;49.026;8.712;2023-03-01T06:20:03;30.08;;;17.52;;
41677;SDS011;27364;49.026;8.712;2023-03-01T06:22:30;31.20;;;17.67;;
41677;SDS011;27364;49.026;8.712;2023-03-01T06:24:55;38.15;;;19.80;;
41677;SDS011;27364;49.026;8.712;2023-03-01T06:27:21;33.00;;;18.60;;
41677;SDS011;27364;49.026;8.712;2023-03-01T06:29:46;34.30;;;19.40;;
41677;SDS011;27364;49.026;8.712;2023-03-01T06:32:12;28.20;;;17.27;;
41677;SDS011;27364;49.026;8.712;2023-03-01T06:34:37;30.23;;;18.13;;
41677;SDS011;27364;49.026;8.712;2023-03-01T06:37:03;28.58;;;16.58;;
41677;SDS011;27364;49.026;8.712;2023-03-01T06:39:30;32.30;;;18.23;;
41677;SDS011;27364;49.026;8.712;2023-03-01T06:41:56;25.63;;;15.63;;
41677;SDS011;27364;49.026;8.712;2023-03-01T06:44:22;25.88;;;16.13;;
41677;SDS011;27364;49.026;8.712;2023-03-01T06:46:47;30.13;;;16.58;;
41677;SDS011;27364;49.026;8.712;2023-03-01T06:49:13;25.98;;;16.80;;
41677;SDS011;27364;49.026;8.712;2023-03-01T06:51:38;27.58;;;17.60;;
41677;SDS011;27364;49.026;8.712;2023-03-01T06:54:04;27.77;;;16.58;;
41677;SDS011;27364;49.026;8.712;2023-03-01T06:56:30;29.77;;;17.92;;
41677;SDS011;27364;49.026;8.712;2023-03-01T06:58:56;30.25;;;17.13;;
41677;SDS011;27364;49.026;8.712;2023-03-01T07:01:21;26.80;;;16.35;;
41677;SDS011;27364;49.026;8.712;2023-03-01T07:03:47;27.65;;;16.20;;
41677;SDS011;27364;49.026;8.712;2023-03-01T07:06:12;30.73;;;17.63;;
41677;SDS011;27364;49.026;8.712;2023-03-01T07:08:38;27.83;;;16.98;;
41677;SDS011;27364;49.026;8.712;2023-03-01T07:11:03;30.10;;;17.27;;
41677;SDS011;27364;49.026;8.712;2023-03-01T07:13:30;27.70;;;16.92;;
41677;SDS011;27364;49.026;8.712;2023-03-01T07:15:56;25.25;;;16.50;;
41677;SDS011;27364;49.026;8.712;2023-03-01T07:18:22;28.92;;;16.27;;
41677;SDS011;27364;49.026;8.712;2023-03-01T07:20:47;31.75;;;16.85;;
41677;SDS011;27364;49.026;8.712;2023-03-01T07:23:13;28.80;;;17.25;;
41677;SDS011;27364;49.026;8.712;2023-03-01T07:25:39;33.33;;;17.50;;
41677;SDS011;27364;49.026;8.712;2023-03-01T07:28:04;27.95;;;17.23;;
41677;SDS011;27364;49.026;8.712;2023-03-01T07:30:30;27.38;;;16.13;;
41677;SDS011;27364;49.026;8.712;2023-03-01T07:32:57;26.08;;;15.95;;
41677;SDS011;27364;49.026;8.712;2023-03-01T07:35:23;26.70;;;16.67;;
41677;SDS011;27364;49.026;8.712;2023-03-01T07:37:50;26.38;;;17.23;;
41677;SDS011;27364;49.026;8.712;2023-03-01T07:40:16;25.85;;;16.23;;
41677;SDS011;27364;49.026;8.712;2023-03-01T07:42:42;26.30;;;17.08;;
41677;SDS011;27364;49.026;8.712;2023-03-01T07:45:07;26.75;;;16.92;;
41677;SDS011;27364;49.026;8.712;2023-03-01T07:47:34;28.67;;;17.35;;
41677;SDS011;27364;49.026;8.712;2023-03-01T07:50:00;30.83;;;17.40;;
41677;SDS011;27364;49.026;8.712;2023-03-01T07:54:55;25.67;;;15.63;;
41677;SDS011;27364;49.026;8.712;2023-03-01T07:57:21;27.83;;;17.20;;
41677;SDS011;27364;49.026;8.712;2023-03-01T07:59:47;28.55;;;17.08;;
41677;SDS011;27364;49.026;8.712;2023-03-01T08:02:13;28.98;;;16.85;;
41677;SDS011;27364;49.026;8.712;2023-03-01T08:04:40;26.35;;;16.98;;
41677;SDS011;27364;49.026;8.712;2023-03-01T08:07:06;26.35;;;16.65;;
41677;SDS011;27364;49.026;8.712;2023-03-01T08:09:31;25.02;;;16.40;;
41677;SDS011;27364;49.026;8.712;2023-03-01T08:12:00;27.40;;;16.77;;
41677;SDS011;27364;49.026;8.712;2023-03-01T08:14:26;26.77;;;17.33;;
41677;SDS011;27364;49.026;8.712;2023-03-01T08:16:51;27.60;;;17.05;;
41677;SDS011;27364;49.026;8.712;2023-03-01T08:19:17;26.45;;;17.80;;
41677;SDS011;27364;49.026;8.712;2023-03-01T08:21:43;25.08;;;16.25;;
41677;SDS011;27364;49.026;8.712;2023-03-01T08:24:08;28.10;;;18.30;;
41677;SDS011;27364;49.026;8.712;2023-03-01T08:26:35;27.33;;;17.13;;
41677;SDS011;27364;49.026;8.712;2023-03-01T08:29:02;27.33;;;17.85;;
41677;SDS011;27364;49.026;8.712;2023-03-01T08:31:29;26.13;;;17.48;;
41677;SDS011;27364;49.026;8.712;2023-03-01T08:33:57;24.17;;;16.23;;
41677;SDS011;27364;49.026;8.712;2023-03-01T08:36:28;27.90;;;16.92;;
41677;SDS011;27364;49.026;8.712;2023-03-01T08:38:55;26.08;;;16.88;;
41677;SDS011;27364;49.026;8.712;2023-03-01T08:41:21;26.55;;;16.90;;
41677;SDS011;27364;49.026;8.712;2023-03-01T08:43:48;27.45;;;17.05;;
41677;SDS011;27364;49.026;8.712;2023-03-01T08:46:14;26.75;;;16.83;;
41677;SDS011;27364;49.026;8.712;2023-03-01T08:48:40;26.50;;;17.42;;
41677;SDS011;27364;49.026;8.712;2023-03-01T08:51:12;27.77;;;17.42;;
41677;SDS011;27364;49.026;8.712;2023-03-01T08:53:41;28.88;;;18.27;;
41677;SDS011;27364;49.026;8.712;2023-03-01T08:56:07;27.23;;;18.23;;
41677;SDS011;27364;49.026;8.712;2023-03-01T08:58:33;28.05;;;17.67;;
41677;SDS011;27364;49.026;8.712;2023-03-01T09:00:58;26.73;;;17.45;;
41677;SDS011;27364;49.026;8.712;2023-03-01T09:03:25;29.90;;;19.05;;
41677;SDS011;27364;49.026;8.712;2023-03-01T09:05:51;28.27;;;17.73;;
41677;SDS011;27364;49.026;8.712;2023-03-01T09:08:17;27.13;;;17.88;;
41677;SDS011;27364;49.026;8.712;2023-03-01T09:10:44;25.23;;;17.85;;
41677;SDS011;27364;49.026;8.712;2023-03-01T09:13:10;26.35;;;18.42;;
41677;SDS011;27364;49.026;8.712;2023-03-01T09:15:38;28.15;;;17.63;;
41677;SDS011;27364;49.026;8.712;2023-03-01T09:18:04;26.40;;;18.23;;
41677;SDS011;27364;49.026;8.712;2023-03-01T09:20:30;24.65;;;16.55;;
41677;SDS011;27364;49.026;8.712;2023-03-01T09:22:58;26.90;;;17.83;;
41677;SDS011;27364;49.026;8.712;2023-03-01T09:25:24;25.02;;;17.20;;
41677;SDS011;27364;49.026;8.712;2023-03-01T09:27:53;26.20;;;18.40;;
41677;SDS011;27364;49.026;8.712;2023-03-01T09:30:19;26.52;;;18.10;;
41677;SDS011;27364;49.026;8.712;2023-03-01T09:32:46;27.35;;;17.67;;
41677;SDS011;27364;49.026;8.712;2023-03-01T09:35:12;25.83;;;17.58;;
41677;SDS011;27364;49.026;8.712;2023-03-01T09:37:38;27.60;;;17.52;;
41677;SDS011;27364;49.026;8.712;2023-03-01T09:40:05;27.48;;;16.60;;
41677;SDS011;27364;49.026;8.712;2023-03-01T09:42:33;26.58;;;17.98;;
41677;SDS011;27364;49.026;8.712;2023-03-01T09:45:05;25.15;;;17.88;;
41677;SDS011;27364;49.026;8.712;2023-03-01T09:47:44;24.30;;;17.65;;
41677;SDS011;27364;49.026;8.712;2023-03-01T09:50:15;21.60;;;17.00;;
41677;SDS011;27364;49.026;8.712;2023-03-01T09:53:02;28.73;;;17.77;;
41677;SDS011;27364;49.026;8.712;2023-03-01T10:00:46;26.20;;;18.13;;
41677;SDS011;27364;49.026;8.712;2023-03-01T10:06:01;27.50;;;18.88;;
41677;SDS011;27364;49.026;8.712;2023-03-01T10:08:48;26.88;;;18.42;;
41677;SDS011;27364;49.026;8.712;2023-03-01T10:11:25;23.08;;;17.48;;
41677;SDS011;27364;49.026;8.712;2023-03-01T10:16:40;24.23;;;17.92;;
41677;SDS011;27364;49.026;8.712;2023-03-01T10:23:08;23.25;;;17.77;;
41677;SDS011;27364;49.026;8.712;2023-03-01T10:28:14;23.13;;;18.15;;
41677;SDS011;27364;49.026;8.712;2023-03-01T10:30:44;25.00;;;18.00;;
41677;SDS011;27364;49.026;8.712;2023-03-01T10:36:19;23.77;;;17.70;;
41677;SDS011;27364;49.026;8.712;2023-03-01T10:38:53;22.25;;;17.20;;
41677;SDS011;27364;49.026;8.712;2023-03-01T10:41:22;22.65;;;17.60;;
41677;SDS011;27364;49.026;8.712;2023-03-01T10:43:56;21.92;;;16.88;;
41677;SDS011;27364;49.026;8.712;2023-03-01T10:49:07;22.35;;;17.90;;
41677;SDS011;27364;49.026;8.712;2023-03-01T10:51:37;21.73;;;17.70;;
41677;SDS011;27364;49.026;8.712;2023-03-01T10:54:19;21.15;;;16.95;;
41677;SDS011;27364;49.026;8.712;2023-03-01T10:56:51;21.35;;;17.85;;
41677;SDS011;27364;49.026;8.712;2023-03-01T10:59:22;19.50;;;16.15;;
41677;SDS011;27364;49.026;8.712;2023-03-01T11:02:02;21.75;;;17.75;;
41677;SDS011;27364;49.026;8.712;2023-03-01T11:04:34;20.88;;;17.10;;
41677;SDS011;27364;49.026;8.712;2023-03-01T11:07:01;24.98;;;17.90;;
41677;SDS011;27364;49.026;8.712;2023-03-01T11:09:31;22.88;;;18.02;;
41677;SDS011;27364;49.026;8.712;2023-03-01T11:12:02;19.85;;;16.38;;
41677;SDS011;27364;49.026;8.712;2023-03-01T11:14:34;20.98;;;16.88;;
41677;SDS011;27364;49.026;8.712;2023-03-01T11:19:27;21.10;;;17.02;;
41677;SDS011;27364;49.026;8.712;2023-03-01T11:24:36;22.13;;;17.10;;
41677;SDS011;27364;49.026;8.712;2023-03-01T11:32:34;20.08;;;16.85;;
41677;SDS011;27364;49.026;8.712;2023-03-01T11:35:10;20.20;;;16.60;;
41677;SDS011;27364;49.026;8.712;2023-03-01T11:45:47;22.00;;;16.60;;
41677;SDS011;27364;49.026;8.712;2023-03-01T11:51:05;22.00;;;16.77;;
41677;SDS011;27364;49.026;8.712;2023-03-01T11:56:19;21.80;;;17.05;;
41677;SDS011;27364;49.026;8.712;2023-03-01T12:07:25;23.33;;;18.75;;
41677;SDS011;27364;49.026;8.712;2023-03-01T12:10:21;23.00;;;18.63;;
41677;SDS011;27364;49.026;8.712;2023-03-01T12:24:31;20.58;;;16.42;;
41677;SDS011;27364;49.026;8.712;2023-03-01T12:38:31;19.27;;;16.17;;
41677;SDS011;27364;49.026;8.712;2023-03-01T12:44:11;20.30;;;16.42;;
41677;SDS011;27364;49.026;8.712;2023-03-01T12:49:26;19.60;;;16.75;;
41677;SDS011;27364;49.026;8.712;2023-03-01T12:51:57;21.13;;;16.00;;
41677;SDS011;27364;49.026;8.712;2023-03-01T12:54:28;20.52;;;15.98;;
41677;SDS011;27364;49.026;8.712;2023-03-01T12:56:57;21.90;;;16.85;;
41677;SDS011;27364;49.026;8.712;2023-03-01T12:59:34;20.17;;;16.17;;
41677;SDS011;27364;49.026;8.712;2023-03-01T13:02:12;22.00;;;17.20;;
41677;SDS011;27364;49.026;8.712;2023-03-01T13:17:46;20.60;;;16.08;;
41677;SDS011;27364;49.026;8.712;2023-03-01T13:20:13;19.63;;;16.67;;
41677;SDS011;27364;49.026;8.712;2023-03-01T13:22:41;19.20;;;16.33;;
41677;SDS011;27364;49.026;8.712;2023-03-01T13:25:17;20.25;;;15.50;;
41677;SDS011;27364;49.026;8.712;2023-03-01T13:27:45;19.02;;;15.48;;
41677;SDS011;27364;49.026;8.712;2023-03-01T13:35:59;20.00;;;15.55;;
41677;SDS011;27364;49.026;8.712;2023-03-01T13:41:06;18.95;;;15.55;;
41677;SDS011;27364;49.026;8.712;2023-03-01T13:43:33;19.25;;;15.00;;
41677;SDS011;27364;49.026;8.712;2023-03-01T13:46:21;18.05;;;15.23;;
41677;SDS011;27364;49.026;8.712;2023-03-01T13:48:57;18.67;;;15.48;;
41677;SDS011;27364;49.026;8.712;2023-03-01T13:51:24;19.10;;;15.18;;
41677;SDS011;27364;49.026;8.712;2023-03-01T13:53:51;18.30;;;15.23;;
41677;SDS011;27364;49.026;8.712;2023-03-01T13:56:24;21.03;;;16.03;;
41677;SDS011;27364;49.026;8.712;2023-03-01T14:01:24;18.98;;;14.60;;
41677;SDS011;27364;49.026;8.712;2023-03-01T14:07:08;19.33;;;15.35;;
41677;SDS011;27364;49.026;8.712;2023-03-01T14:09:42;19.05;;;15.80;;
41677;SDS011;27364;49.026;8.712;2023-03-01T14:12:19;19.02;;;14.85;;
41677;SDS011;27364;49.026;8.712;2023-03-01T14:20:25;18.35;;;15.32;;
41677;SDS011;27364;49.026;8.712;2023-03-01T14:22:54;17.17;;;15.02;;
41677;SDS011;27364;49.026;8.712;2023-03-01T14:25:23;16.77;;;13.65;;
41677;SDS011;27364;49.026;8.712;2023-03-01T14:28:02;18.30;;;15.23;;
41677;SDS011;27364;49.026;8.712;2023-03-01T14:30:51;17.40;;;14.40;;
41677;SDS011;27364;49.026;8.712;2023-03-01T14:33:20;18.88;;;15.50;;
41677;SDS011;27364;49.026;8.712;2023-03-01T14:41:08;21.75;;;16.58;;
41677;SDS011;27364;49.026;8.712;2023-03-01T14:43:51;17.45;;;14.93;;
41677;SDS011;27364;49.026;8.712;2023-03-01T14:46:24;18.55;;;14.90;;
41677;SDS011;27364;49.026;8.712;2023-03-01T14:48:51;19.05;;;14.40;;
41677;SDS011;27364;49.026;8.712;2023-03-01T14:51:21;19.13;;;15.13;;
41677;SDS011;27364;49.026;8.712;2023-03-01T14:53:47;19.48;;;15.38;;
41677;SDS011;27364;49.026;8.712;2023-03-01T14:56:13;18.50;;;15.48;;
41677;SDS011;27364;49.026;8.712;2023-03-01T14:58:42;19.88;;;15.40;;
41677;SDS011;27364;49.026;8.712;2023-03-01T15:01:10;17.75;;;14.95;;
41677;SDS011;27364;49.026;8.712;2023-03-01T15:03:41;19.10;;;15.68;;
41677;SDS011;27364;49.026;8.712;2023-03-01T15:06:14;19.70;;;16.40;;
41677;SDS011;27364;49.026;8.712;2023-03-01T15:08:45;19.30;;;15.30;;
41677;SDS011;27364;49.026;8.712;2023-03-01T15:11:23;19.20;;;15.63;;
41677;SDS011;27364;49.026;8.712;2023-03-01T15:13:52;19.15;;;14.95;;
41677;SDS011;27364;49.026;8.712;2023-03-01T15:16:19;18.02;;;14.55;;
41677;SDS011;27364;49.026;8.712;2023-03-01T15:18:51;18.25;;;15.05;;
41677;SDS011;27364;49.026;8.712;2023-03-01T15:21:21;18.70;;;15.40;;
41677;SDS011;27364;49.026;8.712;2023-03-01T15:26:57;19.10;;;14.98;;
41677;SDS011;27364;49.026;8.712;2023-03-01T15:29:28;17.75;;;15.13;;
41677;SDS011;27364;49.026;8.712;2023-03-01T15:31:59;19.38;;;14.98;;
41677;SDS011;27364;49.026;8.712;2023-03-01T15:34:35;19.17;;;15.63;;
41677;SDS011;27364;49.026;8.712;2023-03-01T15:37:03;21.42;;;14.40;;
41677;SDS011;27364;49.026;8.712;2023-03-01T15:39:43;17.95;;;14.98;;
41677;SDS011;27364;49.026;8.712;2023-03-01T15:42:36;21.33;;;16.25;;
41677;SDS011;27364;49.026;8.712;2023-03-01T15:45:09;20.50;;;16.35;;
41677;SDS011;27364;49.026;8.712;2023-03-01T15:47:49;21.30;;;16.65;;
41677;SDS011;27364;49.026;8.712;2023-03-01T15:50:21;19.10;;;15.65;;
41677;SDS011;27364;49.026;8.712;2023-03-01T15:52:48;21.73;;;16.13;;
41677;SDS011;27364;49.026;8.712;2023-03-01T15:55:24;20.77;;;16.05;;
41677;SDS011;27364;49.026;8.712;2023-03-01T15:58:01;20.63;;;16.48;;
41677;SDS011;27364;49.026;8.712;2023-03-01T16:00:29;18.80;;;15.30;;
41677;SDS011;27364;49.026;8.712;2023-03-01T16:02:55;21.30;;;16.52;;
41677;SDS011;27364;49.026;8.712;2023-03-01T16:07:48;18.33;;;15.13;;
41677;SDS011;27364;49.026;8.712;2023-03-01T16:10:15;20.67;;;16.17;;
41677;SDS011;27364;49.026;8.712;2023-03-01T16:12:41;18.90;;;15.65;;
41677;SDS011;27364;49.026;8.712;2023-03-01T16:15:15;19.73;;;15.30;;
41677;SDS011;27364;49.026;8.712;2023-03-01T16:17:43;19.42;;;15.75;;
41677;SDS011;27364;49.026;8.712;2023-03-01T16:20:09;18.35;;;15.48;;
41677;SDS011;27364;49.026;8.712;2023-03-01T16:22:35;19.65;;;15.77;;
41677;SDS011;27364;49.026;8.712;2023-03-01T16:25:00;20.23;;;16.35;;
41677;SDS011;27364;49.026;8.712;2023-03-01T16:27:27;20.90;;;16.52;;
41677;SDS011;27364;49.026;8.712;2023-03-01T16:29:53;20.10;;;15.73;;
41677;SDS011;27364;49.026;8.712;2023-03-01T16:32:18;21.50;;;16.05;;
41677;SDS011;27364;49.026;8.712;2023-03-01T16:34:44;20.15;;;16.25;;
41677;SDS011;27364;49.026;8.712;2023-03-01T16:37:09;19.85;;;15.93;;
41677;SDS011;27364;49.026;8.712;2023-03-01T16:39:37;20.88;;;16.20;;
41677;SDS011;27364;49.026;8.712;2023-03-01T16:42:03;19.75;;;15.48;;
41677;SDS011;27364;49.026;8.712;2023-03-01T16:44:28;19.58;;;15.48;;
41677;SDS011;27364;49.026;8.712;2023-03-01T16:46:54;19.80;;;16.13;;
41677;SDS011;27364;49.026;8.712;2023-03-01T16:49:20;19.52;;;15.52;;
41677;SDS011;27364;49.026;8.712;2023-03-01T16:51:45;20.17;;;15.68;;
41677;SDS011;27364;49.026;8.712;2023-03-01T16:54:11;18.55;;;15.52;;
41677;SDS011;27364;49.026;8.712;2023-03-01T16:56:36;18.77;;;15.30;;
41677;SDS011;27364;49.026;8.712;2023-03-01T16:59:03;20.08;;;15.50;;